sensor_id;sensor_type;location;lat;lon;timestamp;P1;durP1;ratioP1;P2;durP2;ratioP2
48026;SDS011;50714;49.208;5.364;2022-10-15T00:04:40;0.45;;;0.30;;
48026;SDS011;50714;49.208;5.364;2022-10-15T00:14:41;0.30;;;0.30;;
48026;SDS011;50714;49.208;5.364;2022-10-15T00:24:41;1.30;;;1.20;;
48026;SDS011;50714;49.208;5.364;2022-10-15T00:34:41;1.80;;;1.70;;
48026;SDS011;50714;49.208;5.364;2022-10-15T00:44:46;2.75;;;2.10;;
48026;SDS011;50714;49.208;5.364;2022-10-15T00:54:54;3.90;;;2.90;;
48026;SDS011;50714;49.208;5.364;2022-10-15T01:05:00;4.47;;;3.23;;
48026;SDS011;50714;49.208;5.364;2022-10-15T01:15:06;3.10;;;2.35;;
48026;SDS011;50714;49.208;5.364;2022-10-15T01:45:31;4.97;;;4.18;;
48026;SDS011;50714;49.208;5.364;2022-10-15T02:05:42;6.07;;;4.57;;
48026;SDS011;50714;49.208;5.364;2022-10-15T02:25:55;3.95;;;3.30;;
48026;SDS011;50714;49.208;5.364;2022-10-15T02:35:57;3.47;;;2.90;;
48026;SDS011;50714;49.208;5.364;2022-10-15T02:45:58;3.88;;;3.10;;
48026;SDS011;50714;49.208;5.364;2022-10-15T02:55:59;3.85;;;2.70;;
48026;SDS011;50714;49.208;5.364;2022-10-15T03:05:59;3.38;;;2.72;;
48026;SDS011;50714;49.208;5.364;2022-10-15T03:16:02;2.97;;;2.22;;
48026;SDS011;50714;49.208;5.364;2022-10-15T03:26:03;2.30;;;1.80;;
48026;SDS011;50714;49.208;5.364;2022-10-15T03:36:04;3.08;;;2.38;;
48026;SDS011;50714;49.208;5.364;2022-10-15T03:46:05;2.45;;;2.10;;
48026;SDS011;50714;49.208;5.364;2022-10-15T03:56:05;2.40;;;2.03;;
48026;SDS011;50714;49.208;5.364;2022-10-15T04:06:06;2.42;;;1.92;;
48026;SDS011;50714;49.208;5.364;2022-10-15T04:16:06;1.67;;;1.58;;
48026;SDS011;50714;49.208;5.364;2022-10-15T04:26:07;2.33;;;1.92;;
48026;SDS011;50714;49.208;5.364;2022-10-15T04:36:09;2.17;;;1.77;;
48026;SDS011;50714;49.208;5.364;2022-10-15T04:46:12;1.63;;;1.50;;
48026;SDS011;50714;49.208;5.364;2022-10-15T04:56:13;2.00;;;1.80;;
48026;SDS011;50714;49.208;5.364;2022-10-15T05:06:17;1.88;;;1.65;;
48026;SDS011;50714;49.208;5.364;2022-10-15T05:16:20;1.35;;;1.25;;
48026;SDS011;50714;49.208;5.364;2022-10-15T05:26:26;1.75;;;1.65;;
48026;SDS011;50714;49.208;5.364;2022-10-15T05:36:28;2.70;;;2.17;;
48026;SDS011;50714;49.208;5.364;2022-10-15T05:46:28;1.60;;;1.50;;
48026;SDS011;50714;49.208;5.364;2022-10-15T05:56:29;1.73;;;1.52;;
48026;SDS011;50714;49.208;5.364;2022-10-15T06:06:29;1.88;;;1.52;;
48026;SDS011;50714;49.208;5.364;2022-10-15T06:16:29;1.17;;;1.08;;
48026;SDS011;50714;49.208;5.364;2022-10-15T06:26:30;1.20;;;1.10;;
48026;SDS011;50714;49.208;5.364;2022-10-15T06:36:30;0.68;;;0.68;;
48026;SDS011;50714;49.208;5.364;2022-10-15T06:46:30;1.10;;;0.50;;
48026;SDS011;50714;49.208;5.364;2022-10-15T06:56:31;0.30;;;0.30;;
48026;SDS011;50714;49.208;5.364;2022-10-15T07:06:33;0.52;;;0.30;;
48026;SDS011;50714;49.208;5.364;2022-10-15T07:16:34;5.90;;;2.97;;
48026;SDS011;50714;49.208;5.364;2022-10-15T07:26:36;3.10;;;1.63;;
48026;SDS011;50714;49.208;5.364;2022-10-15T07:36:36;1.50;;;1.10;;
48026;SDS011;50714;49.208;5.364;2022-10-15T07:46:37;0.65;;;0.60;;
48026;SDS011;50714;49.208;5.364;2022-10-15T07:56:37;0.45;;;0.45;;
48026;SDS011;50714;49.208;5.364;2022-10-15T08:06:37;0.47;;;0.38;;
48026;SDS011;50714;49.208;5.364;2022-10-15T08:16:37;1.17;;;0.50;;
48026;SDS011;50714;49.208;5.364;2022-10-15T08:26:38;0.80;;;0.50;;
48026;SDS011;50714;49.208;5.364;2022-10-15T08:36:38;0.65;;;0.43;;
48026;SDS011;50714;49.208;5.364;2022-10-15T08:46:43;0.70;;;0.60;;
48026;SDS011;50714;49.208;5.364;2022-10-15T08:56:49;0.70;;;0.70;;
48026;SDS011;50714;49.208;5.364;2022-10-15T09:07:10;0.38;;;0.38;;
48026;SDS011;50714;49.208;5.364;2022-10-15T09:17:22;0.80;;;0.70;;
48026;SDS011;50714;49.208;5.364;2022-10-15T09:27:33;0.43;;;0.43;;
48026;SDS011;50714;49.208;5.364;2022-10-15T09:37:39;0.30;;;0.30;;
48026;SDS011;50714;49.208;5.364;2022-10-15T09:47:40;0.68;;;0.40;;
48026;SDS011;50714;49.208;5.364;2022-10-15T09:57:44;1.83;;;1.02;;
48026;SDS011;50714;49.208;5.364;2022-10-15T10:07:47;3.90;;;2.00;;
48026;SDS011;50714;49.208;5.364;2022-10-15T10:17:52;1.58;;;0.90;;
48026;SDS011;50714;49.208;5.364;2022-10-15T10:27:54;3.65;;;2.47;;
48026;SDS011;50714;49.208;5.364;2022-10-15T10:38:28;1.00;;;0.90;;
48026;SDS011;50714;49.208;5.364;2022-10-15T10:48:46;0.60;;;0.60;;
48026;SDS011;50714;49.208;5.364;2022-10-15T10:58:54;1.20;;;0.90;;
48026;SDS011;50714;49.208;5.364;2022-10-15T11:39:27;0.40;;;0.40;;
48026;SDS011;50714;49.208;5.364;2022-10-15T11:59:54;0.50;;;0.50;;
48026;SDS011;50714;49.208;5.364;2022-10-15T12:10:04;0.50;;;0.40;;
48026;SDS011;50714;49.208;5.364;2022-10-15T12:20:16;7.57;;;4.85;;
48026;SDS011;50714;49.208;5.364;2022-10-15T12:30:20;5.85;;;2.97;;
48026;SDS011;50714;49.208;5.364;2022-10-15T12:50:23;5.38;;;3.20;;
48026;SDS011;50714;49.208;5.364;2022-10-15T13:00:27;2.13;;;1.48;;
48026;SDS011;50714;49.208;5.364;2022-10-15T13:10:34;2.30;;;1.35;;
48026;SDS011;50714;49.208;5.364;2022-10-15T13:20:39;2.10;;;1.48;;
48026;SDS011;50714;49.208;5.364;2022-10-15T13:30:49;2.60;;;1.50;;
48026;SDS011;50714;49.208;5.364;2022-10-15T13:40:50;3.13;;;1.63;;
48026;SDS011;50714;49.208;5.364;2022-10-15T13:50:56;2.33;;;1.50;;
48026;SDS011;50714;49.208;5.364;2022-10-15T14:11:09;5.65;;;4.68;;
48026;SDS011;50714;49.208;5.364;2022-10-15T14:21:12;2.70;;;2.17;;
48026;SDS011;50714;49.208;5.364;2022-10-15T14:31:24;1.00;;;0.85;;
48026;SDS011;50714;49.208;5.364;2022-10-15T14:41:30;2.17;;;1.00;;
48026;SDS011;50714;49.208;5.364;2022-10-15T14:51:32;1.33;;;1.23;;
48026;SDS011;50714;49.208;5.364;2022-10-15T15:01:33;0.90;;;0.80;;
48026;SDS011;50714;49.208;5.364;2022-10-15T15:11:34;1.23;;;0.93;;
48026;SDS011;50714;49.208;5.364;2022-10-15T15:21:36;0.70;;;0.70;;
48026;SDS011;50714;49.208;5.364;2022-10-15T15:31:36;1.02;;;0.93;;
48026;SDS011;50714;49.208;5.364;2022-10-15T15:41:37;0.45;;;0.45;;
48026;SDS011;50714;49.208;5.364;2022-10-15T15:51:37;0.50;;;0.50;;
48026;SDS011;50714;49.208;5.364;2022-10-15T16:01:39;3.83;;;2.25;;
48026;SDS011;50714;49.208;5.364;2022-10-15T16:11:40;2.13;;;0.82;;
48026;SDS011;50714;49.208;5.364;2022-10-15T16:21:40;0.77;;;0.63;;
48026;SDS011;50714;49.208;5.364;2022-10-15T16:31:41;0.80;;;0.70;;
48026;SDS011;50714;49.208;5.364;2022-10-15T16:41:41;0.70;;;0.70;;
48026;SDS011;50714;49.208;5.364;2022-10-15T16:51:42;3.30;;;1.95;;
48026;SDS011;50714;49.208;5.364;2022-10-15T17:01:42;1.33;;;1.10;;
48026;SDS011;50714;49.208;5.364;2022-10-15T17:11:43;1.08;;;0.73;;
48026;SDS011;50714;49.208;5.364;2022-10-15T17:21:46;3.40;;;2.20;;
48026;SDS011;50714;49.208;5.364;2022-10-15T17:31:47;4.43;;;3.03;;
48026;SDS011;50714;49.208;5.364;2022-10-15T17:41:48;18.95;;;12.93;;
48026;SDS011;50714;49.208;5.364;2022-10-15T17:51:50;26.40;;;15.52;;
48026;SDS011;50714;49.208;5.364;2022-10-15T18:01:50;32.33;;;19.05;;
48026;SDS011;50714;49.208;5.364;2022-10-15T18:11:51;23.80;;;15.07;;
48026;SDS011;50714;49.208;5.364;2022-10-15T18:21:52;12.38;;;10.00;;
48026;SDS011;50714;49.208;5.364;2022-10-15T18:31:54;5.95;;;4.40;;
48026;SDS011;50714;49.208;5.364;2022-10-15T18:41:55;1.98;;;1.42;;
48026;SDS011;50714;49.208;5.364;2022-10-15T18:51:56;1.33;;;1.00;;
48026;SDS011;50714;49.208;5.364;2022-10-15T19:01:56;2.75;;;1.70;;
48026;SDS011;50714;49.208;5.364;2022-10-15T19:11:57;1.17;;;0.93;;
48026;SDS011;50714;49.208;5.364;2022-10-15T19:21:57;0.70;;;0.70;;
48026;SDS011;50714;49.208;5.364;2022-10-15T19:31:58;0.80;;;0.80;;
48026;SDS011;50714;49.208;5.364;2022-10-15T19:41:58;0.75;;;0.75;;
48026;SDS011;50714;49.208;5.364;2022-10-15T19:51:58;1.17;;;1.08;;
48026;SDS011;50714;49.208;5.364;2022-10-15T20:02:02;0.90;;;0.90;;
48026;SDS011;50714;49.208;5.364;2022-10-15T20:12:02;1.15;;;1.05;;
48026;SDS011;50714;49.208;5.364;2022-10-15T20:22:03;1.20;;;1.10;;
48026;SDS011;50714;49.208;5.364;2022-10-15T20:32:03;0.88;;;0.52;;
48026;SDS011;50714;49.208;5.364;2022-10-15T20:42:04;0.60;;;0.60;;
48026;SDS011;50714;49.208;5.364;2022-10-15T20:52:06;1.10;;;0.55;;
48026;SDS011;50714;49.208;5.364;2022-10-15T21:02:07;0.40;;;0.40;;
48026;SDS011;50714;49.208;5.364;2022-10-15T21:12:07;0.40;;;0.40;;
48026;SDS011;50714;49.208;5.364;2022-10-15T21:22:09;0.80;;;0.77;;
48026;SDS011;50714;49.208;5.364;2022-10-15T21:32:09;0.98;;;0.77;;
48026;SDS011;50714;49.208;5.364;2022-10-15T21:42:10;0.87;;;0.63;;
48026;SDS011;50714;49.208;5.364;2022-10-15T21:52:10;0.75;;;0.40;;
48026;SDS011;50714;49.208;5.364;2022-10-15T22:02:11;0.70;;;0.50;;
48026;SDS011;50714;49.208;5.364;2022-10-15T22:12:11;2.22;;;1.48;;
48026;SDS011;50714;49.208;5.364;2022-10-15T22:22:11;1.40;;;0.80;;
48026;SDS011;50714;49.208;5.364;2022-10-15T22:32:12;1.63;;;1.10;;
48026;SDS011;50714;49.208;5.364;2022-10-15T22:42:12;1.60;;;1.17;;
48026;SDS011;50714;49.208;5.364;2022-10-15T22:52:12;1.13;;;0.80;;
48026;SDS011;50714;49.208;5.364;2022-10-15T23:02:13;0.80;;;0.68;;
48026;SDS011;50714;49.208;5.364;2022-10-15T23:12:14;0.68;;;0.55;;
48026;SDS011;50714;49.208;5.364;2022-10-15T23:22:14;0.73;;;0.50;;
48026;SDS011;50714;49.208;5.364;2022-10-15T23:32:14;1.45;;;0.90;;
48026;SDS011;50714;49.208;5.364;2022-10-15T23:42:15;4.28;;;2.20;;
48026;SDS011;50714;49.208;5.364;2022-10-15T23:52:15;7.03;;;3.90;;
